Time;durP1;ratioP1;P1;durP2;ratioP2;P2;SDS_P1;SDS_P2;PMS_P1;PMS_P2;Temp;Humidity;BMP_temperature;BMP_pressure;BME280_temperature;BME280_humidity;BME280_pressure;Samples;Min_cycle;Max_cycle;Signal;HPM_P1;HPM_P2
2023/05/26 00:00:18;;;;;;;27.58;7.57;;;7.20;99.90;;;;;;5074776;28;20044;-35
2023/05/26 00:02:45;;;;;;;33.88;7.35;;;7.10;99.90;;;;;;5075557;28;20050;-41
2023/05/26 00:05:13;;;;;;;30.20;7.53;;;7.10;99.90;;;;;;5075032;28;20089;-38
2023/05/26 00:07:39;;;;;;;23.88;8.18;;;7.10;99.90;;;;;;5073684;28;20086;-40
2023/05/26 00:10:07;;;;;;;27.55;7.80;;;7.10;99.90;;;;;;5066620;28;20048;-39
2023/05/26 00:12:33;;;;;;;23.52;7.57;;;7.10;99.90;;;;;;5075632;28;20473;-36
2023/05/26 00:14:58;;;;;;;25.73;6.97;;;7.00;99.90;;;;;;5074751;28;20628;-34
2023/05/26 00:17:24;;;;;;;24.42;6.82;;;7.00;99.90;;;;;;5073829;28;20040;-39
2023/05/26 00:19:52;;;;;;;21.85;6.50;;;7.00;99.90;;;;;;5074709;28;20334;-37
2023/05/26 00:22:18;;;;;;;28.73;7.15;;;6.90;99.90;;;;;;5072665;28;20539;-41
2023/05/26 00:24:45;;;;;;;27.25;7.57;;;6.90;99.90;;;;;;5074740;28;20101;-38
2023/05/26 00:27:11;;;;;;;24.30;6.53;;;6.90;99.90;;;;;;5073607;28;20052;-37
2023/05/26 00:29:37;;;;;;;25.00;6.32;;;6.80;99.90;;;;;;5074485;28;20051;-37
2023/05/26 00:32:06;;;;;;;23.27;7.65;;;6.70;99.90;;;;;;5073433;28;20058;-37
2023/05/26 00:34:35;;;;;;;26.50;7.38;;;6.70;99.90;;;;;;5074721;28;20150;-37
2023/05/26 00:37:01;;;;;;;26.27;6.43;;;6.70;99.90;;;;;;5068131;28;20052;-45
2023/05/26 00:39:28;;;;;;;29.90;7.03;;;6.70;99.90;;;;;;5075318;28;20044;-37
2023/05/26 00:41:54;;;;;;;24.35;6.65;;;6.60;99.90;;;;;;5074749;28;20048;-38
2023/05/26 00:44:21;;;;;;;25.52;6.85;;;6.60;99.90;;;;;;5061478;28;20055;-35
2023/05/26 00:46:47;;;;;;;17.40;6.68;;;6.60;99.90;;;;;;5073443;28;20054;-37
2023/05/26 00:49:13;;;;;;;20.67;5.95;;;6.60;99.90;;;;;;5074469;28;20048;-38
2023/05/26 00:51:40;;;;;;;23.08;6.28;;;6.60;99.90;;;;;;5063159;28;20132;-40
2023/05/26 00:54:06;;;;;;;30.85;6.68;;;6.50;99.90;;;;;;5074456;28;20079;-39
2023/05/26 00:56:34;;;;;;;20.40;5.88;;;6.50;99.90;;;;;;5073275;28;20502;-37
2023/05/26 00:59:02;;;;;;;19.08;6.10;;;6.50;99.90;;;;;;5061099;28;20459;-36
2023/05/26 01:01:28;;;;;;;25.45;6.97;;;6.50;99.90;;;;;;5074332;28;20048;-37
2023/05/26 01:03:54;;;;;;;24.85;6.25;;;6.40;99.90;;;;;;5072609;28;20675;-38
2023/05/26 01:06:22;;;;;;;32.35;7.57;;;6.40;99.90;;;;;;5072612;28;20062;-36
2023/05/26 01:08:48;;;;;;;22.48;7.00;;;6.40;99.90;;;;;;5072237;28;20048;-39
2023/05/26 01:11:29;;;;;;;34.83;8.45;;;6.40;99.90;;;;;;5067114;28;20059;-38
2023/05/26 01:14:01;;;;;;;22.85;6.43;;;6.40;99.90;;;;;;5074516;28;20040;-35
2023/05/26 01:16:33;;;;;;;25.35;6.47;;;6.40;99.90;;;;;;5072521;28;20044;-37
2023/05/26 01:19:16;;;;;;;21.48;6.97;;;6.30;99.90;;;;;;5074011;28;20224;-42
2023/05/26 01:21:44;;;;;;;23.50;6.67;;;6.30;99.90;;;;;;5073989;28;20058;-37
2023/05/26 01:24:42;;;;;;;15.50;5.43;;;6.30;99.90;;;;;;5075072;28;20040;-35
2023/05/26 01:27:52;;;;;;;24.60;5.78;;;6.20;99.90;;;;;;5073713;28;20407;-38
2023/05/26 01:30:20;;;;;;;18.05;5.20;;;6.20;99.90;;;;;;4985900;28;20579;-35
2023/05/26 01:32:49;;;;;;;18.67;5.40;;;6.20;99.90;;;;;;5010413;28;20073;-37
2023/05/26 01:35:15;;;;;;;14.15;4.70;;;6.20;99.90;;;;;;5010697;28;20615;-39
2023/05/26 01:37:42;;;;;;;22.45;6.20;;;6.20;99.90;;;;;;4991790;28;20049;-35
2023/05/26 01:40:09;;;;;;;19.05;6.13;;;6.10;99.90;;;;;;5010735;28;20057;-38
2023/05/26 01:42:41;;;;;;;18.20;5.95;;;6.10;99.90;;;;;;5006423;28;20049;-36
2023/05/26 01:45:18;;;;;;;20.08;6.45;;;6.00;99.90;;;;;;5003578;28;20130;-37
2023/05/26 01:47:49;;;;;;;22.15;5.63;;;6.00;99.90;;;;;;5009462;28;20066;-39
2023/05/26 01:50:16;;;;;;;26.40;6.88;;;6.00;99.90;;;;;;5009956;28;20061;-39
2023/05/26 01:52:44;;;;;;;23.58;5.93;;;6.00;99.90;;;;;;5010390;28;20049;-36
2023/05/26 01:55:13;;;;;;;22.38;6.50;;;6.00;99.90;;;;;;5009982;28;20566;-38
2023/05/26 01:57:42;;;;;;;18.67;5.88;;;6.00;99.90;;;;;;5009379;28;20058;-39
2023/05/26 02:00:09;;;;;;;26.50;6.32;;;6.00;99.90;;;;;;5009987;28;20405;-36
2023/05/26 02:02:35;;;;;;;21.77;6.72;;;6.10;99.90;;;;;;5006272;28;20450;-39
2023/05/26 02:05:01;;;;;;;25.65;6.35;;;6.10;99.90;;;;;;4992470;28;20056;-38
2023/05/26 02:07:28;;;;;;;20.02;6.15;;;6.10;99.90;;;;;;5054909;28;20078;-39
2023/05/26 02:09:55;;;;;;;21.55;5.65;;;6.10;99.90;;;;;;5065724;28;20439;-37
2023/05/26 02:12:20;;;;;;;22.77;6.13;;;6.10;99.90;;;;;;5072150;28;20508;-35
2023/05/26 02:14:46;;;;;;;27.98;6.40;;;6.10;99.90;;;;;;5073356;28;20105;-37
2023/05/26 02:17:13;;;;;;;31.50;6.78;;;6.00;99.90;;;;;;5072501;28;20052;-37
2023/05/26 02:19:40;;;;;;;27.52;6.22;;;6.10;99.90;;;;;;5073565;28;20266;-39
2023/05/26 02:22:06;;;;;;;25.05;6.35;;;6.10;99.90;;;;;;5055433;28;20052;-37
2023/05/26 02:24:32;;;;;;;23.83;6.60;;;6.00;99.90;;;;;;5073089;28;20044;-39
2023/05/26 02:26:57;;;;;;;20.63;6.30;;;6.10;99.90;;;;;;5071878;28;20056;-35
2023/05/26 02:29:23;;;;;;;27.65;6.22;;;6.00;99.90;;;;;;5072257;28;20415;-39
2023/05/26 02:31:49;;;;;;;26.80;6.60;;;6.00;99.90;;;;;;5054693;28;20526;-39
2023/05/26 02:34:15;;;;;;;21.60;6.25;;;6.00;99.90;;;;;;5073270;28;20052;-41
2023/05/26 02:36:41;;;;;;;24.23;7.68;;;6.00;99.90;;;;;;5067055;28;20487;-40
2023/05/26 02:39:07;;;;;;;24.73;6.43;;;5.90;99.90;;;;;;5070651;28;20056;-38
2023/05/26 02:41:33;;;;;;;21.38;5.95;;;6.00;99.90;;;;;;5072508;28;20059;-37
2023/05/26 02:43:58;;;;;;;16.67;5.53;;;5.90;99.90;;;;;;5059765;28;20048;-40
2023/05/26 02:46:24;;;;;;;24.13;6.25;;;5.90;99.90;;;;;;5071521;28;20784;-38
2023/05/26 02:48:50;;;;;;;25.05;5.95;;;5.90;99.90;;;;;;5072079;28;20522;-36
2023/05/26 02:51:15;;;;;;;21.38;5.72;;;5.90;99.90;;;;;;5067219;28;20084;-38
2023/05/26 02:53:41;;;;;;;23.60;6.05;;;5.90;99.90;;;;;;5072896;28;20075;-39
2023/05/26 02:56:07;;;;;;;24.05;5.50;;;5.90;99.90;;;;;;5071527;28;20409;-37
2023/05/26 02:58:33;;;;;;;26.92;7.00;;;5.90;99.90;;;;;;5073031;28;20051;-36
2023/05/26 03:00:58;;;;;;;21.15;6.25;;;5.80;99.90;;;;;;5072677;28;20480;-41
2023/05/26 03:03:24;;;;;;;22.50;5.85;;;5.80;99.90;;;;;;5072845;28;20098;-39
2023/05/26 03:05:51;;;;;;;22.70;5.38;;;5.80;99.90;;;;;;5072543;28;20048;-39
2023/05/26 03:08:17;;;;;;;20.38;6.10;;;5.80;99.90;;;;;;5076091;28;20051;-38
2023/05/26 03:10:43;;;;;;;23.00;5.75;;;5.80;99.90;;;;;;5069367;28;20043;-36
2023/05/26 03:13:09;;;;;;;25.92;6.43;;;5.80;99.90;;;;;;5075160;28;20383;-39
2023/05/26 03:15:36;;;;;;;22.58;5.88;;;5.80;99.90;;;;;;5076915;28;20550;-35
2023/05/26 03:18:02;;;;;;;28.88;6.55;;;5.70;99.90;;;;;;5074437;28;20051;-37
2023/05/26 03:20:27;;;;;;;19.60;5.35;;;5.80;99.90;;;;;;5076128;28;20050;-35
2023/05/26 03:22:53;;;;;;;26.45;6.85;;;5.80;99.90;;;;;;5076218;28;20044;-38
2023/05/26 03:25:19;;;;;;;19.73;6.05;;;5.80;99.90;;;;;;5075895;28;20510;-37
2023/05/26 03:27:45;;;;;;;25.58;8.05;;;5.80;99.90;;;;;;5074778;28;20119;-39
2023/05/26 03:30:11;;;;;;;23.52;6.20;;;5.90;99.90;;;;;;5075820;28;20063;-37
2023/05/26 03:32:37;;;;;;;28.05;6.65;;;5.90;99.90;;;;;;5076117;28;20048;-37
2023/05/26 03:35:03;;;;;;;23.90;5.82;;;5.90;99.90;;;;;;5074633;28;20423;-39
2023/05/26 03:37:29;;;;;;;23.48;5.85;;;5.90;99.90;;;;;;5068213;28;20040;-37
2023/05/26 03:39:54;;;;;;;28.25;6.57;;;5.90;99.90;;;;;;5075588;28;20470;-37
2023/05/26 03:42:20;;;;;;;22.35;5.97;;;5.90;99.90;;;;;;5073758;28;20386;-39
2023/05/26 03:44:45;;;;;;;22.27;6.50;;;6.00;99.90;;;;;;5065538;28;20050;-38
2023/05/26 03:47:11;;;;;;;27.02;5.88;;;6.00;99.90;;;;;;5074553;28;20399;-36
2023/05/26 03:49:37;;;;;;;21.50;6.03;;;6.10;99.90;;;;;;5074199;28;20048;-38
2023/05/26 03:52:03;;;;;;;19.48;5.90;;;6.10;99.90;;;;;;5075361;28;20044;-34
2023/05/26 03:54:28;;;;;;;14.95;5.15;;;6.10;99.90;;;;;;5076347;28;20055;-36
2023/05/26 03:56:55;;;;;;;20.30;6.20;;;6.20;99.90;;;;;;5073157;28;20419;-43
2023/05/26 03:59:21;;;;;;;22.92;6.00;;;6.30;99.90;;;;;;5076087;28;20052;-37
2023/05/26 04:01:47;;;;;;;20.45;4.93;;;6.40;99.90;;;;;;5067769;28;20047;-39
2023/05/26 04:04:13;;;;;;;20.48;5.22;;;6.50;99.90;;;;;;5074146;28;20485;-35
2023/05/26 04:06:38;;;;;;;22.38;5.40;;;6.60;99.90;;;;;;5071989;28;20579;-42
2023/05/26 04:09:05;;;;;;;24.85;6.55;;;6.70;99.90;;;;;;5053232;28;20138;-39
2023/05/26 04:11:31;;;;;;;26.25;6.50;;;6.90;99.90;;;;;;5072411;28;20036;-35
2023/05/26 04:13:57;;;;;;;27.52;7.35;;;7.10;99.90;;;;;;5075538;28;20044;-40
2023/05/26 04:16:23;;;;;;;20.35;6.22;;;7.50;99.90;;;;;;5074006;28;20130;-44
2023/05/26 04:18:49;;;;;;;28.42;7.05;;;8.00;99.90;;;;;;5075015;28;20064;-40
2023/05/26 04:21:15;;;;;;;29.52;6.82;;;8.50;99.90;;;;;;5074861;28;20381;-41
2023/05/26 04:23:41;;;;;;;27.50;6.50;;;8.90;99.90;;;;;;5075617;28;20132;-38
2023/05/26 04:26:08;;;;;;;25.25;6.43;;;9.40;99.90;;;;;;5074336;28;20475;-39
2023/05/26 04:28:34;;;;;;;22.33;6.75;;;10.00;99.90;;;;;;5075103;28;20048;-41
2023/05/26 04:31:03;;;;;;;26.17;7.07;;;10.60;99.90;;;;;;5074701;28;20112;-37
2023/05/26 04:33:30;;;;;;;20.67;6.45;;;11.00;99.90;;;;;;5075012;28;20083;-38
2023/05/26 04:35:56;;;;;;;24.92;6.80;;;11.60;99.90;;;;;;5068069;28;20040;-38
2023/05/26 04:38:21;;;;;;;23.08;5.85;;;12.00;99.90;;;;;;5073552;28;20594;-40
2023/05/26 04:40:48;;;;;;;25.27;7.07;;;12.30;99.90;;;;;;5074734;28;20116;-37
2023/05/26 04:43:14;;;;;;;22.45;5.90;;;12.80;99.90;;;;;;5064628;28;20045;-41
2023/05/26 04:45:42;;;;;;;26.77;6.38;;;13.10;99.90;;;;;;5071602;28;20044;-41
2023/05/26 04:48:08;;;;;;;24.38;7.15;;;13.30;99.90;;;;;;5074282;28;20492;-39
2023/05/26 04:50:38;;;;;;;25.02;7.78;;;13.50;99.90;;;;;;5073138;28;20105;-39
2023/05/26 04:53:05;;;;;;;26.58;7.28;;;14.00;99.90;;;;;;5074627;28;20046;-41
2023/05/26 04:55:30;;;;;;;21.17;6.57;;;14.40;99.90;;;;;;5073919;28;20040;-41
2023/05/26 04:57:56;;;;;;;26.63;7.53;;;14.80;99.90;;;;;;5073160;28;20078;-37
2023/05/26 05:00:22;;;;;;;24.90;6.20;;;15.20;99.90;;;;;;5073897;28;20968;-42
2023/05/26 05:02:47;;;;;;;26.80;7.65;;;15.70;99.90;;;;;;5072564;28;20530;-41
2023/05/26 05:05:13;;;;;;;22.05;5.93;;;16.10;99.90;;;;;;5074362;28;20051;-37
2023/05/26 05:07:39;;;;;;;21.88;6.10;;;16.20;99.90;;;;;;5073644;28;20079;-42
2023/05/26 05:10:05;;;;;;;15.88;5.75;;;16.40;99.90;;;;;;5066302;28;20055;-41
2023/05/26 05:12:32;;;;;;;21.25;6.97;;;16.70;99.90;;;;;;5074416;28;20306;-39
2023/05/26 05:14:57;;;;;;;24.02;8.00;;;17.20;99.90;;;;;;5073674;28;20052;-37
2023/05/26 05:17:23;;;;;;;18.45;6.05;;;17.40;99.90;;;;;;5072559;28;20044;-41
2023/05/26 05:19:49;;;;;;;22.65;5.82;;;17.60;99.90;;;;;;5074101;28;20372;-39
2023/05/26 05:22:14;;;;;;;17.10;6.05;;;18.10;99.90;;;;;;5074019;28;20040;-43
2023/05/26 05:24:40;;;;;;;18.40;5.82;;;18.40;99.90;;;;;;5073735;28;20461;-40
2023/05/26 05:27:06;;;;;;;20.65;6.07;;;18.70;99.90;;;;;;5073199;28;20409;-40
2023/05/26 05:29:31;;;;;;;21.70;6.88;;;19.30;99.90;;;;;;5073415;28;20048;-41
2023/05/26 05:31:57;;;;;;;20.95;6.45;;;19.80;99.90;;;;;;5073448;28;20039;-39
2023/05/26 05:34:23;;;;;;;17.75;6.03;;;20.30;99.90;;;;;;5073289;28;20065;-44
2023/05/26 05:36:48;;;;;;;20.17;5.95;;;20.60;99.90;;;;;;5068199;28;20048;-39
2023/05/26 05:39:14;;;;;;;24.05;7.53;;;21.00;99.40;;;;;;5092692;28;20116;-41
2023/05/26 05:41:40;;;;;;;21.80;6.70;;;21.40;99.90;;;;;;5074062;28;20036;-43
2023/05/26 05:44:05;;;;;;;20.90;7.03;;;21.60;99.20;;;;;;5060808;28;20477;-45
2023/05/26 05:46:31;;;;;;;16.90;6.18;;;21.90;98.80;;;;;;5072784;28;20058;-41
2023/05/26 05:48:56;;;;;;;21.25;6.35;;;21.40;97.80;;;;;;5073892;28;20036;-42
2023/05/26 05:51:22;;;;;;;19.85;6.28;;;21.50;98.30;;;;;;5072031;28;20087;-46
2023/05/26 05:53:48;;;;;;;20.45;6.72;;;21.90;97.80;;;;;;5073844;28;20208;-46
2023/05/26 05:56:13;;;;;;;23.60;6.25;;;22.40;96.70;;;;;;5073133;28;20515;-40
2023/05/26 05:58:39;;;;;;;23.40;6.93;;;22.40;97.50;;;;;;5073912;28;20052;-46
2023/05/26 06:01:05;;;;;;;19.08;6.57;;;22.70;97.00;;;;;;5073968;28;20047;-40
2023/05/26 06:03:30;;;;;;;19.30;6.28;;;23.00;96.70;;;;;;5072243;28;20058;-38
2023/05/26 06:05:56;;;;;;;21.20;5.63;;;23.30;96.80;;;;;;5072591;28;20088;-44
2023/05/26 06:08:22;;;;;;;21.02;6.63;;;23.80;95.90;;;;;;5073031;28;20075;-44
2023/05/26 06:10:47;;;;;;;19.10;6.43;;;24.10;95.40;;;;;;5065336;28;20044;-39
2023/05/26 06:13:13;;;;;;;21.88;6.93;;;24.00;94.30;;;;;;5073438;28;20048;-42
2023/05/26 06:15:39;;;;;;;17.58;6.55;;;24.10;94.50;;;;;;5072911;28;20059;-47
2023/05/26 06:18:04;;;;;;;18.92;6.68;;;24.10;94.90;;;;;;5073541;28;20051;-41
2023/05/26 06:20:30;;;;;;;23.00;7.28;;;24.10;94.40;;;;;;5073380;28;20072;-42
2023/05/26 06:22:56;;;;;;;21.33;6.03;;;24.60;94.00;;;;;;5072901;28;20512;-41
2023/05/26 06:25:21;;;;;;;24.42;6.90;;;24.50;93.00;;;;;;5073270;28;20472;-41
2023/05/26 06:27:47;;;;;;;23.17;6.68;;;24.60;93.80;;;;;;5070627;28;20047;-43
2023/05/26 06:30:13;;;;;;;16.92;5.95;;;25.00;93.00;;;;;;5073873;28;20044;-39
2023/05/26 06:32:39;;;;;;;19.85;6.82;;;24.50;91.50;;;;;;5073576;28;20139;-46
2023/05/26 06:35:05;;;;;;;19.55;5.82;;;24.10;92.40;;;;;;5073185;28;20575;-40
2023/05/26 06:37:31;;;;;;;15.40;5.72;;;24.30;92.60;;;;;;5065145;28;20646;-38
2023/05/26 06:39:57;;;;;;;16.55;6.18;;;23.60;91.50;;;;;;5074590;28;20050;-45
2023/05/26 06:42:23;;;;;;;27.27;6.93;;;23.60;92.10;;;;;;5073566;28;20051;-42
2023/05/26 06:44:49;;;;;;;17.88;6.38;;;23.20;92.40;;;;;;5067104;28;20048;-41
2023/05/26 06:47:15;;;;;;;19.23;6.15;;;22.80;92.00;;;;;;5075964;28;20044;-48
2023/05/26 06:49:41;;;;;;;27.75;7.85;;;23.30;92.40;;;;;;5076672;28;20078;-45
2023/05/26 06:52:07;;;;;;;16.50;6.30;;;23.40;92.20;;;;;;5075803;28;20040;-52
2023/05/26 06:54:32;;;;;;;18.65;6.10;;;22.30;92.20;;;;;;5075485;28;20131;-43
2023/05/26 06:57:00;;;;;;;17.83;5.82;;;23.10;92.30;;;;;;5074855;28;20043;-43
2023/05/26 06:59:26;;;;;;;18.48;6.90;;;22.20;92.30;;;;;;5076823;28;20051;-41
2023/05/26 07:01:52;;;;;;;19.45;6.60;;;22.30;93.30;;;;;;5076576;28;20047;-41
2023/05/26 07:04:17;;;;;;;17.63;5.10;;;23.00;93.00;;;;;;5075012;28;20411;-40
2023/05/26 07:06:43;;;;;;;15.52;5.65;;;23.60;92.00;;;;;;5075586;28;20047;-40
2023/05/26 07:09:10;;;;;;;17.45;6.18;;;23.50;91.60;;;;;;5070608;28;20746;-45
2023/05/26 07:11:36;;;;;;;18.00;5.55;;;23.30;91.60;;;;;;5072230;28;20479;-39
2023/05/26 07:14:01;;;;;;;21.33;5.45;;;23.60;92.40;;;;;;5075255;28;20083;-40
2023/05/26 07:16:27;;;;;;;15.25;5.00;;;23.80;91.40;;;;;;5067240;28;20056;-43
2023/05/26 07:18:52;;;;;;;15.93;5.05;;;23.00;90.50;;;;;;5061031;28;20041;-44
2023/05/26 07:21:21;;;;;;;16.73;5.30;;;22.50;91.30;;;;;;5056703;28;20140;-45
2023/05/26 07:23:47;;;;;;;13.60;5.30;;;21.90;91.70;;;;;;5057537;28;20144;-44
2023/05/26 07:26:13;;;;;;;12.43;4.45;;;21.20;92.90;;;;;;5067187;28;20416;-40
2023/05/26 07:28:40;;;;;;;16.02;5.65;;;20.70;92.40;;;;;;5058357;28;20044;-45
2023/05/26 07:31:06;;;;;;;17.30;5.88;;;20.60;94.20;;;;;;5058106;28;20051;-39
2023/05/26 07:33:32;;;;;;;14.32;5.95;;;20.10;93.90;;;;;;5055428;28;20052;-42
2023/05/26 07:35:58;;;;;;;17.08;5.68;;;20.20;94.80;;;;;;5056441;28;20044;-38
2023/05/26 07:38:23;;;;;;;20.83;5.93;;;20.20;94.90;;;;;;5061026;28;20080;-41
2023/05/26 07:40:49;;;;;;;29.00;7.00;;;20.30;94.70;;;;;;5064908;28;20404;-44
2023/05/26 07:43:15;;;;;;;15.75;5.55;;;20.20;94.60;;;;;;5055696;28;20147;-44
2023/05/26 07:45:41;;;;;;;15.15;5.35;;;20.10;94.40;;;;;;5074270;28;20154;-45
2023/05/26 07:48:07;;;;;;;15.93;5.47;;;20.20;94.00;;;;;;5075856;28;20084;-45
2023/05/26 07:50:32;;;;;;;14.25;4.43;;;19.90;93.50;;;;;;5073368;28;20503;-42
2023/05/26 07:52:58;;;;;;;17.35;4.35;;;19.40;93.50;;;;;;5075385;28;20559;-40
2023/05/26 07:55:23;;;;;;;16.23;5.97;;;19.10;94.60;;;;;;5075009;28;20542;-37
2023/05/26 07:57:49;;;;;;;14.13;4.40;;;19.00;95.10;;;;;;5069570;28;20055;-43
2023/05/26 08:00:15;;;;;;;16.40;5.03;;;18.90;94.90;;;;;;5056271;28;20059;-44
2023/05/26 08:02:41;;;;;;;14.23;5.60;;;18.50;95.50;;;;;;5052141;28;20182;-40
2023/05/26 08:05:07;;;;;;;22.77;5.07;;;18.20;95.70;;;;;;5058962;28;20052;-41
2023/05/26 08:07:33;;;;;;;12.23;4.70;;;18.40;96.60;;;;;;5057435;28;20087;-39
2023/05/26 08:09:59;;;;;;;17.58;4.78;;;18.40;96.70;;;;;;5055925;28;20551;-40
2023/05/26 08:12:24;;;;;;;15.80;4.90;;;18.60;95.30;;;;;;5058972;28;20051;-43
2023/05/26 08:14:50;;;;;;;17.73;5.28;;;18.50;95.00;;;;;;5065001;28;20044;-40
2023/05/26 08:17:16;;;;;;;16.13;4.50;;;18.50;94.70;;;;;;5058729;28;20563;-39
2023/05/26 08:19:42;;;;;;;16.83;5.30;;;18.20;96.00;;;;;;5087392;27;20044;-41
2023/05/26 08:22:07;;;;;;;13.50;4.72;;;18.20;95.30;;;;;;5057223;28;20048;-40
2023/05/26 08:24:33;;;;;;;14.20;4.43;;;18.00;95.70;;;;;;5059268;28;20047;-40
2023/05/26 08:26:59;;;;;;;13.38;4.55;;;18.20;96.30;;;;;;5051392;28;20076;-41
2023/05/26 08:29:24;;;;;;;18.33;6.05;;;18.00;95.60;;;;;;5059744;28;20400;-43
2023/05/26 08:31:50;;;;;;;12.90;5.05;;;18.20;95.70;;;;;;5064030;28;20405;-43
2023/05/26 08:34:17;;;;;;;16.40;4.53;;;18.20;95.60;;;;;;5058840;28;20390;-39
2023/05/26 08:36:43;;;;;;;16.73;3.92;;;18.20;94.40;;;;;;5054144;28;20840;-41
2023/05/26 08:39:09;;;;;;;17.23;5.53;;;18.20;94.70;;;;;;5056784;28;20493;-45
2023/05/26 08:41:44;;;;;;;19.45;4.85;;;18.20;95.30;;;;;;5052288;28;20048;-43
2023/05/26 08:44:13;;;;;;;18.52;4.10;;;18.10;96.10;;;;;;5055396;28;20052;-41
2023/05/26 08:46:39;;;;;;;17.08;5.13;;;17.90;95.60;;;;;;5056885;28;20048;-44
2023/05/26 08:49:07;;;;;;;18.40;5.22;;;18.00;95.90;;;;;;5063149;28;20563;-39
2023/05/26 08:51:37;;;;;;;16.52;4.72;;;17.40;95.30;;;;;;5056260;28;20076;-45
2023/05/26 08:54:03;;;;;;;13.55;4.78;;;17.70;95.60;;;;;;5055339;28;20055;-38
2023/05/26 08:56:29;;;;;;;12.90;4.45;;;17.80;96.10;;;;;;5059411;28;20051;-40
2023/05/26 08:58:55;;;;;;;15.60;4.55;;;17.70;95.00;;;;;;5054284;28;20051;-44
2023/05/26 09:01:21;;;;;;;16.35;4.43;;;17.70;94.40;;;;;;5053189;28;20416;-41
2023/05/26 09:03:46;;;;;;;18.75;4.95;;;17.70;95.50;;;;;;5057087;28;20044;-41
2023/05/26 09:06:12;;;;;;;18.52;5.13;;;17.70;95.40;;;;;;5054103;28;20550;-39
2023/05/26 09:08:37;;;;;;;14.40;3.85;;;17.60;95.60;;;;;;5061088;28;20645;-37
2023/05/26 09:11:25;;;;;;;15.45;4.35;;;17.70;95.50;;;;;;5066806;28;20238;-38
2023/05/26 09:13:52;;;;;;;13.05;4.25;;;17.80;97.10;;;;;;5055848;28;20034;-37
2023/05/26 09:16:21;;;;;;;19.80;5.22;;;17.70;96.70;;;;;;5059682;28;20050;-40
2023/05/26 09:18:47;;;;;;;16.08;4.72;;;17.60;96.60;;;;;;5059786;28;20062;-47
2023/05/26 09:21:12;;;;;;;18.48;5.00;;;17.90;97.30;;;;;;5057170;28;20028;-40
2023/05/26 09:23:38;;;;;;;14.35;4.22;;;17.90;96.10;;;;;;5057848;28;20388;-43
2023/05/26 09:26:06;;;;;;;18.60;4.82;;;18.00;96.00;;;;;;5053581;28;20212;-43
2023/05/26 09:28:32;;;;;;;13.75;5.25;;;18.00;95.50;;;;;;5055467;28;20042;-40
2023/05/26 09:30:57;;;;;;;17.85;4.60;;;18.00;95.90;;;;;;5062591;28;20036;-39
2023/05/26 09:33:23;;;;;;;16.00;4.97;;;18.00;95.60;;;;;;5057897;28;20039;-39
2023/05/26 09:35:49;;;;;;;18.08;4.47;;;17.90;97.60;;;;;;5055194;28;20480;-38
2023/05/26 09:38:17;;;;;;;17.10;4.75;;;18.20;95.70;;;;;;5052247;28;20087;-45
2023/05/26 09:40:44;;;;;;;29.15;5.40;;;18.20;96.00;;;;;;5055667;28;20093;-42
2023/05/26 09:43:10;;;;;;;24.00;6.45;;;17.80;95.50;;;;;;5058387;28;20387;-41
2023/05/26 09:45:37;;;;;;;18.83;4.95;;;17.80;96.70;;;;;;5054904;28;20413;-42
2023/05/26 09:48:04;;;;;;;19.17;5.20;;;17.90;97.30;;;;;;5059186;28;20055;-43
2023/05/26 09:50:34;;;;;;;17.17;5.10;;;17.50;96.40;;;;;;5067948;28;20128;-39
2023/05/26 09:53:02;;;;;;;16.52;4.32;;;17.70;97.90;;;;;;5050184;28;20634;-40
2023/05/26 09:55:31;;;;;;;15.05;4.90;;;17.80;96.00;;;;;;5082876;27;20548;-41
2023/05/26 09:58:14;;;;;;;13.05;4.63;;;18.00;97.30;;;;;;5053229;28;20101;-41
2023/05/26 10:00:42;;;;;;;20.08;5.97;;;17.80;96.70;;;;;;5052883;28;20049;-41
2023/05/26 10:03:10;;;;;;;15.82;4.90;;;17.30;96.20;;;;;;5085690;27;20049;-40
2023/05/26 10:05:45;;;;;;;17.20;5.22;;;17.50;97.20;;;;;;5053532;28;20610;-40
2023/05/26 10:08:13;;;;;;;14.48;4.78;;;17.50;96.80;;;;;;5068345;28;20703;-42
2023/05/26 10:10:42;;;;;;;15.05;5.05;;;17.70;95.80;;;;;;5064443;28;20083;-44
2023/05/26 10:13:09;;;;;;;21.02;5.63;;;17.90;96.90;;;;;;5070905;28;20048;-43
2023/05/26 10:15:35;;;;;;;17.63;5.20;;;17.90;98.00;;;;;;5075090;28;20485;-44
2023/05/26 10:18:02;;;;;;;17.52;5.07;;;18.20;96.10;;;;;;5077568;28;20048;-40
2023/05/26 10:20:29;;;;;;;16.25;4.55;;;18.00;96.80;;;;;;5078095;28;20122;-40
2023/05/26 10:23:00;;;;;;;10.75;3.90;;;18.20;96.30;;;;;;5075881;28;20055;-45
2023/05/26 10:25:32;;;;;;;13.63;4.05;;;18.10;95.80;;;;;;5073515;28;20143;-43
2023/05/26 10:28:00;;;;;;;13.68;5.53;;;18.30;96.80;;;;;;5075296;28;20476;-42
2023/05/26 10:30:26;;;;;;;16.98;4.63;;;18.40;96.10;;;;;;5076354;28;20043;-40
2023/05/26 10:33:06;;;;;;;13.13;4.97;;;18.60;96.80;;;;;;5076998;28;20082;-43
2023/05/26 10:35:32;;;;;;;17.75;5.57;;;18.70;96.30;;;;;;5071388;28;20751;-41
2023/05/26 10:38:05;;;;;;;17.25;5.07;;;18.80;97.00;;;;;;5074081;28;20133;-40
2023/05/26 10:40:33;;;;;;;19.65;5.53;;;18.50;95.70;;;;;;5077252;28;20119;-42
2023/05/26 10:43:20;;;;;;;24.67;5.47;;;18.30;96.70;;;;;;5076559;28;20525;-39
2023/05/26 10:46:03;;;;;;;15.90;4.60;;;18.40;96.20;;;;;;5075768;28;20044;-40
2023/05/26 10:48:56;;;;;;;19.98;5.25;;;18.10;95.90;;;;;;5076991;28;20039;-43
2023/05/26 10:51:32;;;;;;;14.50;4.72;;;18.00;98.30;;;;;;5066960;28;20524;-41
2023/05/26 10:53:59;;;;;;;16.80;5.50;;;18.10;97.80;;;;;;5075314;28;20038;-43
2023/05/26 10:56:34;;;;;;;17.27;5.43;;;18.20;97.00;;;;;;5075379;28;20407;-39
2023/05/26 10:59:02;;;;;;;15.45;4.70;;;18.20;96.20;;;;;;5076405;28;20592;-42
2023/05/26 11:01:32;;;;;;;14.25;4.70;;;18.10;96.70;;;;;;5076184;28;20100;-44
2023/05/26 11:04:09;;;;;;;16.65;4.50;;;17.90;97.00;;;;;;5075074;28;20453;-39
2023/05/26 11:06:50;;;;;;;17.27;5.43;;;17.80;97.40;;;;;;5072830;28;20032;-37
2023/05/26 11:09:19;;;;;;;18.33;4.85;;;18.10;98.30;;;;;;5073941;28;20056;-40
2023/05/26 11:11:57;;;;;;;17.08;5.70;;;18.30;97.80;;;;;;5072540;28;20059;-45
2023/05/26 11:14:23;;;;;;;14.20;5.05;;;18.40;96.60;;;;;;5075394;28;20046;-47
2023/05/26 11:16:50;;;;;;;21.98;5.38;;;18.20;96.20;;;;;;5072579;28;20132;-44
2023/05/26 11:19:33;;;;;;;14.50;4.95;;;17.90;98.60;;;;;;5075700;28;20139;-39
2023/05/26 11:22:05;;;;;;;16.70;5.68;;;18.10;99.50;;;;;;5075544;28;20121;-43
2023/05/26 11:24:31;;;;;;;22.50;5.75;;;18.30;97.20;;;;;;5072535;28;20499;-43
2023/05/26 11:27:01;;;;;;;19.85;6.30;;;18.30;98.00;;;;;;5074511;28;20464;-39
2023/05/26 11:29:28;;;;;;;17.30;5.07;;;18.30;97.20;;;;;;5071603;28;20491;-45
2023/05/26 11:31:54;;;;;;;20.33;5.40;;;18.20;97.40;;;;;;5076027;28;20036;-43
2023/05/26 11:34:21;;;;;;;18.42;4.85;;;18.30;97.70;;;;;;5075888;28;20067;-44
2023/05/26 11:36:54;;;;;;;20.38;4.78;;;18.40;97.20;;;;;;5070170;28;20036;-37
2023/05/26 11:39:21;;;;;;;16.02;4.47;;;18.30;98.00;;;;;;5074397;28;20052;-45
2023/05/26 11:41:48;;;;;;;16.63;5.07;;;18.40;97.20;;;;;;5057898;28;20050;-41
2023/05/26 11:44:15;;;;;;;15.85;5.03;;;18.50;96.70;;;;;;5061876;28;20048;-43
2023/05/26 11:46:42;;;;;;;17.80;5.75;;;18.30;97.00;;;;;;5075868;28;20115;-45
2023/05/26 11:49:15;;;;;;;18.65;6.13;;;18.20;96.90;;;;;;5074981;28;20050;-42
2023/05/26 11:51:50;;;;;;;13.20;5.53;;;17.90;98.00;;;;;;5073642;28;20046;-41
2023/05/26 11:54:17;;;;;;;18.30;4.82;;;17.70;97.40;;;;;;5073573;28;20164;-41
2023/05/26 11:56:44;;;;;;;16.15;5.53;;;17.80;98.60;;;;;;5074466;28;20479;-38
2023/05/26 11:59:14;;;;;;;20.70;6.18;;;17.90;95.90;;;;;;5075698;28;20090;-40
2023/05/26 12:01:40;;;;;;;17.90;4.82;;;18.00;96.90;;;;;;5073300;28;20075;-45
2023/05/26 12:04:06;;;;;;;17.08;4.97;;;18.10;97.10;;;;;;5075544;28;20127;-41
2023/05/26 12:06:32;;;;;;;13.93;4.50;;;18.20;96.90;;;;;;5073032;28;20040;-38
2023/05/26 12:09:00;;;;;;;16.75;5.43;;;18.00;97.00;;;;;;5070752;28;20075;-44
2023/05/26 12:11:28;;;;;;;18.27;5.35;;;18.00;97.80;;;;;;5070940;28;20036;-43
2023/05/26 12:14:10;;;;;;;22.30;6.72;;;18.10;98.20;;;;;;5075684;28;20147;-47
2023/05/26 12:16:37;;;;;;;12.50;5.22;;;18.00;98.00;;;;;;5074071;28;20539;-45
2023/05/26 12:19:08;;;;;;;31.58;7.43;;;17.70;97.50;;;;;;5072441;28;20067;-38
2023/05/26 12:21:44;;;;;;;16.00;5.85;;;17.50;98.80;;;;;;5074934;28;20427;-38
2023/05/26 12:24:11;;;;;;;16.73;5.45;;;17.60;98.60;;;;;;5076047;28;20048;-38
2023/05/26 12:26:39;;;;;;;22.17;7.35;;;17.70;99.40;;;;;;5074034;28;20040;-39
2023/05/26 12:29:15;;;;;;;23.10;6.63;;;17.80;99.60;;;;;;5074677;28;20119;-40
2023/05/26 12:31:49;;;;;;;19.88;7.13;;;17.90;99.80;;;;;;5073565;28;20048;-45
2023/05/26 12:34:22;;;;;;;20.02;6.40;;;17.90;99.50;;;;;;5074462;28;20044;-43
2023/05/26 12:36:49;;;;;;;22.35;7.47;;;17.90;99.60;;;;;;5068893;28;20078;-41
2023/05/26 12:39:16;;;;;;;17.63;6.20;;;17.70;98.30;;;;;;5074943;28;20040;-46
2023/05/26 12:41:45;;;;;;;21.13;6.85;;;17.70;98.20;;;;;;5075556;28;20040;-42